Kezdőlap
METAR-TAF:

METAR-TAF

Repülőterek :

Luangphabang, Laosz

földrajzi szélesség: 19-53N, földrajzi hosszúság: 102-08E, magasság: 305 m

Jelenlegi meteorológiai megfigyelések

A jelentés 51 perccel ezelõtt készült, 02:00 UTC
Nyugati szél 2 kt
Hőmérséklet 27°C
Páratartalom 84%
Légköri nyomás 1004 hPa
Látótávolság: 7000 m
Szórványos felhőzet 1000 lábon
Szakadozott felhőzet 6000 lábon

METAR: VLLB 190200Z 27002KT 7000 SCT010 BKN060 27/24 Q1004 NOSIG

Idő: 09:51 (02:51 UTC)

Előrejelzés

A jelentés 3 órával és 51 perccel ezelõtt készült, 23:00 UTC
Az előrejelzés 19-én 00 óra UTC és 19-én 24 óra UTC között érvényes
Kelet-délkeleti szél 4 kt
Látótávolság 10 km, vagy több
Szórványos felhőzet 1000 lábon
Szakadozott felhőzet 6000 lábon

TAF: VLLB 182300Z 1900/1924 12004KT 9999 SCT010 BKN060

Meteorológiai megfigyelések és előrejelzések több, mint 4000 repülőtéren (METAR és TAF jelentéseket).

A térképen piros és sárga pontok jelzik az elérhető meteorológiai állomásokat.

Mozgassa az egeret a pont fölött, hogy megjelenjen az állomás neve.

Azután kattintson az időjárási megfigyelések és előrejelzések megtekintéséhez.

A térkép megváltoztatása: kattintson a fekete keresztel jelölt zöld gombra ráközelítéshez, a vonallal jelölt zöld gombra távolításhoz, vagy a zöld nyilakra a szomszédos térképek eléréséhez.


METAR-TAF: